Time;durP1;ratioP1;P1;durP2;ratioP2;P2;SDS_P1;SDS_P2;PMS_P1;PMS_P2;Temp;Humidity;BMP_temperature;BMP_pressure;BME280_temperature;BME280_humidity;BME280_pressure;Samples;Min_cycle;Max_cycle;Signal;HPM_P1;HPM_P2
2024/01/20 05:22:32;;;;;;;7.68;5.38;;;;;;;-9.08;100.00;101625.25;5089307;28;20324;-33
2024/01/20 05:24:57;;;;;;;8.98;4.70;;;;;;;-9.16;100.00;101622.75;5089238;28;20040;-33
2024/01/20 05:27:23;;;;;;;5.95;4.15;;;;;;;-8.95;100.00;101631.13;5088932;28;20044;-32
2024/01/20 05:29:48;;;;;;;7.72;4.63;;;;;;;-8.94;100.00;101625.09;5089156;28;20040;-36
2024/01/20 05:32:17;;;;;;;6.28;4.32;;;;;;;-9.11;100.00;101630.44;5088847;28;20147;-33
2024/01/20 05:34:42;;;;;;;7.10;4.20;;;;;;;-9.15;100.00;101634.78;5088614;28;20051;-33
2024/01/20 05:37:08;;;;;;;9.70;5.10;;;;;;;-9.15;100.00;101631.34;5088501;28;20040;-34
2024/01/20 05:39:34;;;;;;;7.82;5.25;;;;;;;-9.13;100.00;101642.50;5088235;28;20040;-34
2024/01/20 05:42:00;;;;;;;9.93;5.60;;;;;;;-9.16;100.00;101643.38;5088668;28;20146;-33
2024/01/20 05:44:26;;;;;;;9.25;4.95;;;;;;;-9.21;100.00;101628.81;5088711;28;20039;-34
2024/01/20 05:46:52;;;;;;;6.00;4.60;;;;;;;-8.97;100.00;101638.06;5088363;28;20438;-33
2024/01/20 05:49:17;;;;;;;7.25;4.65;;;;;;;-8.96;100.00;101634.59;5088859;28;20116;-34
2024/01/20 05:51:42;;;;;;;6.10;4.25;;;;;;;-8.85;100.00;101641.34;5088686;28;20025;-34
2024/01/20 05:54:08;;;;;;;5.70;4.22;;;;;;;-9.06;100.00;101649.34;5088544;28;20097;-34
2024/01/20 05:56:33;;;;;;;4.75;3.60;;;;;;;-9.08;100.00;101651.06;5088413;28;20051;-34
2024/01/20 05:58:59;;;;;;;6.57;4.60;;;;;;;-9.12;100.00;101650.25;5088429;28;20123;-33
2024/01/20 06:01:24;;;;;;;9.15;4.28;;;;;;;-9.22;100.00;101648.63;5088202;28;20044;-34
2024/01/20 06:03:50;;;;;;;7.97;4.03;;;;;;;-9.19;100.00;101660.63;5088220;28;20056;-34
2024/01/20 06:06:15;;;;;;;5.05;4.07;;;;;;;-9.22;100.00;101656.34;5087835;28;20048;-33
2024/01/20 06:08:40;;;;;;;7.50;4.32;;;;;;;-9.30;100.00;101663.31;5088262;28;20036;-34
2024/01/20 06:11:06;;;;;;;6.32;4.28;;;;;;;-9.24;100.00;101659.84;5087936;28;20043;-34
2024/01/20 06:13:31;;;;;;;6.82;3.70;;;;;;;-9.21;100.00;101667.53;5088341;28;20044;-33
2024/01/20 06:15:56;;;;;;;5.63;3.88;;;;;;;-9.09;100.00;101670.88;5087996;28;20043;-34
2024/01/20 06:18:22;;;;;;;6.20;3.85;;;;;;;-9.39;100.00;101682.31;5087882;28;20040;-34
2024/01/20 06:20:47;;;;;;;6.72;4.43;;;;;;;-9.47;100.00;101668.59;5087762;28;20142;-33
2024/01/20 06:23:13;;;;;;;6.38;4.15;;;;;;;-9.39;100.00;101672.00;5087871;28;20123;-34
2024/01/20 06:25:38;;;;;;;6.32;4.43;;;;;;;-9.39;100.00;101672.00;5088021;28;20122;-34
2024/01/20 06:28:05;;;;;;;6.40;4.25;;;;;;;-9.36;100.00;101671.13;5087770;28;20388;-34
2024/01/20 06:30:31;;;;;;;7.90;4.78;;;;;;;-9.19;100.00;101679.56;5087886;28;20028;-34
2024/01/20 06:32:58;;;;;;;7.03;3.92;;;;;;;-9.21;100.00;101683.03;5079592;28;20051;-34
2024/01/20 06:35:23;;;;;;;10.38;4.22;;;;;;;-9.26;100.00;101680.47;5074435;28;20039;-34
2024/01/20 06:37:49;;;;;;;8.68;4.55;;;;;;;-9.16;100.00;101691.59;5073989;28;20037;-34
2024/01/20 06:40:14;;;;;;;4.95;4.07;;;;;;;-9.33;100.00;101691.72;5074157;28;20426;-36
2024/01/20 06:42:40;;;;;;;8.73;4.68;;;;;;;-9.41;100.00;101691.78;5066002;28;20032;-32
2024/01/20 06:45:05;;;;;;;5.80;3.95;;;;;;;-9.34;100.00;101692.59;5073261;28;20488;-34
2024/01/20 06:47:31;;;;;;;6.38;4.15;;;;;;;-9.34;100.00;101698.59;5055056;28;20396;-35
2024/01/20 06:49:56;;;;;;;5.13;4.00;;;;;;;-9.36;100.00;101700.34;5053949;28;20076;-34
2024/01/20 06:52:21;;;;;;;8.30;4.20;;;;;;;-9.45;100.00;101708.19;5054521;28;20045;-34
2024/01/20 06:54:48;;;;;;;6.63;4.30;;;;;;;-9.32;100.00;101712.38;5059286;28;20033;-35
2024/01/20 06:57:14;;;;;;;5.50;3.97;;;;;;;-9.44;100.00;101712.47;5060715;28;20037;-35
2024/01/20 06:59:39;;;;;;;5.95;4.35;;;;;;;-9.36;100.00;101705.50;5057745;28;20039;-35
2024/01/20 07:02:05;;;;;;;7.10;4.55;;;;;;;-9.25;100.00;101699.44;5053592;28;20041;-34
2024/01/20 07:04:31;;;;;;;5.32;3.63;;;;;;;-9.37;100.00;101701.22;5053705;28;20037;-34
2024/01/20 07:06:56;;;;;;;6.90;4.30;;;;;;;-9.35;100.00;101702.06;5053368;28;20037;-34
2024/01/20 07:09:22;;;;;;;6.40;3.72;;;;;;;-9.33;100.00;101705.47;5053589;28;20041;-35
2024/01/20 07:11:47;;;;;;;8.30;4.82;;;;;;;-9.34;100.00;101708.94;5053744;28;20090;-34
2024/01/20 07:14:12;;;;;;;4.82;3.55;;;;;;;-9.29;100.00;101719.22;5053753;28;20488;-34
2024/01/20 07:16:38;;;;;;;7.22;4.53;;;;;;;-9.21;100.00;101714.00;5052989;28;20082;-34
2024/01/20 07:19:03;;;;;;;10.45;6.28;;;;;;;-9.20;100.00;101715.72;5053395;28;20044;-34
2024/01/20 07:21:29;;;;;;;8.57;6.10;;;;;;;-9.29;100.00;101714.06;5053160;28;20040;-35
2024/01/20 07:23:54;;;;;;;6.38;4.43;;;;;;;-9.28;100.00;101715.78;5053461;28;20035;-35
2024/01/20 07:26:19;;;;;;;9.07;4.35;;;;;;;-9.23;100.00;101721.75;5053235;28;20064;-34
2024/01/20 07:28:45;;;;;;;9.35;5.78;;;;;;;-9.03;100.00;101726.75;5052882;28;20033;-35
2024/01/20 07:31:12;;;;;;;7.75;4.60;;;;;;;-9.08;100.00;101724.22;5053076;28;20032;-34
2024/01/20 07:33:38;;;;;;;8.30;4.35;;;;;;;-9.09;100.00;101721.66;5052744;28;20083;-34
2024/01/20 07:36:05;;;;;;;5.35;3.78;;;;;;;-8.75;100.00;101730.78;5052519;28;20037;-35
2024/01/20 07:38:30;;;;;;;6.43;4.20;;;;;;;-8.85;100.00;101733.50;5052332;28;20037;-33
2024/01/20 07:40:58;;;;;;;7.20;4.60;;;;;;;-8.81;100.00;101742.91;5052174;28;20110;-34
2024/01/20 07:43:23;;;;;;;6.43;4.50;;;;;;;-1.26;100.00;101727.63;5051952;28;20060;-32
2024/01/20 07:45:53;;;;;;;19.35;4.68;;;;;;;10.56;100.00;101717.91;5051616;28;20489;-31
2024/01/20 07:48:19;;;;;;;5.70;3.95;;;;;;;11.65;61.91;101714.94;5052602;28;20142;-31
2024/01/20 07:50:45;;;;;;;6.28;4.07;;;;;;;11.92;53.09;101722.19;5060662;28;20029;-31
2024/01/20 07:53:10;;;;;;;4.82;3.63;;;;;;;2.98;44.74;101732.19;5053106;28;20037;-35
2024/01/20 07:55:35;;;;;;;6.10;3.80;;;;;;;1.43;51.98;101732.78;5052845;28;20041;-35
2024/01/20 07:58:01;;;;;;;5.05;4.55;;;;;;;1.45;51.50;101738.84;5052452;28;20040;-33
2024/01/20 08:00:26;;;;;;;5.75;4.13;;;;;;;1.53;51.00;101736.66;5052379;28;20092;-36
2024/01/20 08:02:51;;;;;;;5.90;4.90;;;;;;;1.07;51.26;101733.75;5052377;28;20187;-35
2024/01/20 08:05:17;;;;;;;7.63;4.30;;;;;;;1.28;53.35;101737.06;5052551;28;20104;-35
2024/01/20 08:07:42;;;;;;;6.20;4.30;;;;;;;2.14;49.33;101741.31;5052328;28;20029;-35
2024/01/20 08:10:08;;;;;;;5.47;4.25;;;;;;;-0.40;57.57;101758.06;5052333;28;20508;-34
2024/01/20 08:12:34;;;;;;;6.70;4.43;;;;;;;0.54;54.52;101758.16;5052411;28;20090;-35
2024/01/20 08:14:59;;;;;;;6.32;4.28;;;;;;;-0.46;58.17;101758.31;5052195;28;20045;-34
2024/01/20 08:17:24;;;;;;;5.95;4.60;;;;;;;2.98;51.04;101753.25;5052003;28;20052;-35
2024/01/20 08:19:50;;;;;;;7.75;4.40;;;;;;;2.78;50.99;101757.94;5051923;28;20041;-35
2024/01/20 08:22:15;;;;;;;6.15;4.60;;;;;;;4.04;47.93;101763.66;5051664;28;20045;-34
2024/01/20 08:24:40;;;;;;;6.90;4.85;;;;;;;1.77;51.65;101768.72;5051810;28;20045;-36
2024/01/20 08:27:06;;;;;;;6.18;4.75;;;;;;;3.93;46.23;101775.78;5051824;28;20037;-35
2024/01/20 08:29:31;;;;;;;6.82;4.60;;;;;;;4.33;46.85;101775.03;5051720;28;20090;-35
2024/01/20 08:31:57;;;;;;;7.63;5.25;;;;;;;4.41;47.78;101773.69;5051902;28;20501;-36
2024/01/20 08:34:22;;;;;;;6.05;4.32;;;;;;;3.63;46.96;101773.19;5051910;28;20041;-35
2024/01/20 08:36:47;;;;;;;4.80;4.15;;;;;;;4.83;47.62;101776.25;5051485;28;20142;-36
2024/01/20 08:39:13;;;;;;;5.95;4.60;;;;;;;4.88;46.96;101774.13;5051518;28;20056;-36
2024/01/20 08:41:38;;;;;;;8.77;6.03;;;;;;;4.68;45.29;101765.81;5051712;28;20044;-35
2024/01/20 08:44:04;;;;;;;8.80;5.38;;;;;;;4.58;46.05;101762.91;5051615;28;20049;-35
2024/01/20 08:46:30;;;;;;;8.23;4.80;;;;;;;4.76;45.24;101769.66;5051647;28;20043;-36
2024/01/20 08:48:55;;;;;;;6.38;4.60;;;;;;;3.81;47.11;101774.75;5051956;28;20387;-34
2024/01/20 08:51:21;;;;;;;5.70;4.35;;;;;;;3.75;46.55;101778.59;5051603;28;20040;-35
2024/01/20 08:53:47;;;;;;;6.07;4.68;;;;;;;3.85;45.44;101778.00;5051571;28;20041;-36
2024/01/20 08:56:12;;;;;;;5.68;3.92;;;;;;;3.97;46.90;101782.56;5051764;28;20374;-39
2024/01/20 08:58:38;;;;;;;4.70;3.60;;;;;;;1.13;52.89;101778.06;5051406;28;20044;-37
2024/01/20 09:01:04;;;;;;;5.55;4.53;;;;;;;3.32;50.47;101785.53;5051726;28;20056;-38
2024/01/20 09:03:30;;;;;;;4.35;3.78;;;;;;;1.91;52.85;101787.22;5051445;28;20091;-36
2024/01/20 09:05:55;;;;;;;5.45;3.45;;;;;;;3.57;50.19;101779.69;5051395;28;20052;-38
2024/01/20 09:08:21;;;;;;;6.00;4.68;;;;;;;-0.36;59.90;101784.03;5051041;28;20117;-38
2024/01/20 09:10:46;;;;;;;7.00;5.90;;;;;;;3.23;52.77;101786.06;5051356;28;20033;-34
2024/01/20 09:13:11;;;;;;;6.25;5.65;;;;;;;3.84;50.31;101792.16;5051506;28;20043;-37
2024/01/20 09:15:37;;;;;;;7.68;6.22;;;;;;;1.56;55.35;101789.03;5050495;28;20044;-36
2024/01/20 09:18:03;;;;;;;7.70;6.32;;;;;;;2.36;55.03;101789.19;5051221;28;20438;-35
2024/01/20 09:20:29;;;;;;;8.07;6.18;;;;;;;2.69;53.86;101786.50;5051430;28;20043;-36
2024/01/20 09:22:54;;;;;;;7.82;6.03;;;;;;;2.89;56.78;101777.47;5051424;28;20037;-34
2024/01/20 09:25:20;;;;;;;9.00;6.35;;;;;;;2.77;54.02;101780.78;5051523;28;20076;-36
2024/01/20 09:27:45;;;;;;;8.02;6.47;;;;;;;3.06;56.67;101780.91;5057900;28;20029;-36
2024/01/20 09:30:11;;;;;;;8.88;6.57;;;;;;;2.67;57.83;101784.84;5051272;28;20048;-35
2024/01/20 09:32:36;;;;;;;7.60;6.18;;;;;;;3.80;55.43;101783.59;5051745;28;20051;-35
2024/01/20 09:35:05;;;;;;;8.25;6.30;;;;;;;3.12;55.99;101781.41;5051377;28;20112;-36
2024/01/20 09:37:31;;;;;;;7.70;5.72;;;;;;;4.49;52.73;101772.25;5051310;28;20037;-36
2024/01/20 09:39:57;;;;;;;5.07;3.85;;;;;;;3.58;55.30;101780.53;5051463;28;20389;-36
2024/01/20 09:42:22;;;;;;;4.50;3.80;;;;;;;3.34;55.35;101783.69;5052075;28;20559;-36
2024/01/20 09:44:49;;;;;;;4.70;3.70;;;;;;;2.42;59.69;101782.75;5051549;28;20037;-36
2024/01/20 09:47:14;;;;;;;4.82;3.80;;;;;;;3.91;55.73;101788.19;5051198;28;20041;-37
2024/01/20 09:49:39;;;;;;;5.43;3.95;;;;;;;2.70;57.18;101787.34;5051516;28;20107;-36
2024/01/20 09:52:12;;;;;;;5.45;4.13;;;;;;;4.86;54.08;101788.38;5051581;28;20104;-36
2024/01/20 09:54:48;;;;;;;5.43;4.07;;;;;;;3.97;55.08;101791.31;5052274;28;20029;-36
2024/01/20 09:57:15;;;;;;;6.03;4.20;;;;;;;4.57;54.70;101791.09;5051067;28;20037;-36
2024/01/20 09:59:42;;;;;;;5.13;4.05;;;;;;;4.05;60.18;101793.50;5051212;28;20037;-37
2024/01/20 10:02:10;;;;;;;5.70;3.93;;;;;;;2.03;59.30;101799.72;5050907;28;20056;-36
2024/01/20 10:04:39;;;;;;;5.18;4.28;;;;;;;3.46;60.21;101808.47;5050957;28;20689;-37
2024/01/20 10:07:04;;;;;;;7.03;4.65;;;;;;;4.17;57.93;101794.50;5050886;28;20036;-37
2024/01/20 10:09:30;;;;;;;5.20;4.05;;;;;;;5.31;53.16;101792.47;5054420;28;20052;-36
2024/01/20 10:11:56;;;;;;;6.03;4.60;;;;;;;3.53;59.82;101796.63;5054437;28;20084;-38
2024/01/20 10:14:21;;;;;;;7.03;5.30;;;;;;;5.63;55.03;101787.66;5054545;28;20033;-37
2024/01/20 10:16:46;;;;;;;6.38;4.80;;;;;;;5.29;53.88;101790.88;5054065;28;20048;-34
2024/01/20 10:19:12;;;;;;;7.57;5.50;;;;;;;5.24;60.48;101795.63;5054337;28;20044;-35
2024/01/20 10:21:39;;;;;;;6.38;5.22;;;;;;;4.90;54.76;101780.19;5054480;28;20052;-42
2024/01/20 10:24:06;;;;;;;7.68;5.30;;;;;;;5.31;57.12;101781.03;5061384;28;20501;-39
2024/01/20 10:26:40;;;;;;;7.32;5.20;;;;;;;2.21;69.26;101783.88;5072413;28;20045;-37
2024/01/20 10:29:05;;;;;;;5.30;4.05;;;;;;;4.41;64.42;101777.16;5059369;28;20040;-38
2024/01/20 10:31:33;;;;;;;4.57;3.58;;;;;;;3.30;60.22;101783.94;5054062;28;20370;-36
2024/01/20 10:33:59;;;;;;;4.95;3.60;;;;;;;4.03;56.04;101779.53;5054226;28;20480;-32
2024/01/20 10:36:27;;;;;;;4.60;3.55;;;;;;;4.95;55.96;101787.78;5054068;28;20040;-35
2024/01/20 10:38:53;;;;;;;6.00;3.70;;;;;;;2.66;65.54;101793.69;5053673;28;20043;-36
2024/01/20 10:41:23;;;;;;;5.10;3.45;;;;;;;3.64;62.68;101799.44;5053584;28;20033;-38
2024/01/20 10:43:58;;;;;;;4.95;3.60;;;;;;;2.32;65.99;101802.56;5055895;28;20063;-37
2024/01/20 10:46:29;;;;;;;4.30;3.47;;;;;;;2.79;66.10;101797.34;5054072;28;20036;-39
2024/01/20 10:48:59;;;;;;;4.63;3.78;;;;;;;2.92;65.27;101797.50;5053603;28;20041;-35
2024/01/20 10:51:28;;;;;;;4.47;3.70;;;;;;;3.78;61.68;101798.63;5053928;28;20443;-33
2024/01/20 10:53:57;;;;;;;3.80;3.22;;;;;;;4.00;58.66;101799.03;5070381;28;20125;-36
2024/01/20 10:56:24;;;;;;;4.88;3.90;;;;;;;1.84;66.87;101799.84;5073654;28;20400;-34
2024/01/20 10:59:08;;;;;;;4.93;3.70;;;;;;;3.14;65.71;101797.16;5073661;28;20064;-34
2024/01/20 11:01:36;;;;;;;4.95;3.85;;;;;;;3.57;60.81;101802.53;5073521;28;20271;-35
2024/01/20 11:04:01;;;;;;;5.28;3.80;;;;;;;2.51;65.69;101802.44;5073880;28;20334;-34
2024/01/20 11:06:27;;;;;;;6.00;4.30;;;;;;;4.52;59.37;101789.69;5073760;28;20047;-36
2024/01/20 11:08:53;;;;;;;6.55;4.72;;;;;;;3.43;63.75;101798.94;5072941;28;20047;-36
2024/01/20 11:11:20;;;;;;;6.50;4.63;;;;;;;4.82;60.00;101784.25;5073592;28;20051;-35
2024/01/20 11:13:48;;;;;;;7.03;5.07;;;;;;;4.78;63.26;101772.19;5073549;28;20060;-39
2024/01/20 11:16:21;;;;;;;7.07;5.00;;;;;;;3.69;62.57;101773.69;5073478;28;20059;-34
2024/01/20 11:18:47;;;;;;;6.13;4.97;;;;;;;1.64;74.68;101773.75;5073213;28;20043;-34
2024/01/20 11:21:17;;;;;;;6.68;5.05;;;;;;;2.82;69.90;101765.59;5072900;28;20396;-35
2024/01/20 11:24:15;;;;;;;6.18;4.88;;;;;;;4.31;68.18;101747.91;5062451;28;20048;-39
2024/01/20 11:26:41;;;;;;;6.63;5.32;;;;;;;4.87;61.21;101753.94;5040045;28;20055;-39
2024/01/20 11:29:08;;;;;;;6.47;5.50;;;;;;;4.76;62.51;101742.38;5061995;28;20396;-38
2024/01/20 11:31:34;;;;;;;7.43;5.50;;;;;;;5.47;59.19;101743.84;5062800;28;20127;-37
2024/01/20 11:34:02;;;;;;;6.88;4.82;;;;;;;4.53;63.08;101743.88;5063743;28;20556;-35
2024/01/20 11:36:31;;;;;;;;;;;;;;;5.71;59.03;101728.97;5061910;28;20112;-34
2024/01/20 11:38:57;;;;;;;7.70;5.25;;;;;;;5.77;57.48;101722.41;5061911;28;19912;-40
2024/01/20 11:41:23;;;;;;;8.65;5.90;;;;;;;4.77;57.06;101717.72;5062961;28;20024;-38
2024/01/20 11:43:48;;;;;;;8.98;6.25;;;;;;;4.82;64.99;101711.16;5061873;28;20051;-33
2024/01/20 11:46:14;;;;;;;8.02;6.18;;;;;;;3.22;69.88;101718.53;5062553;28;20047;-34
2024/01/20 11:48:40;;;;;;;10.35;7.05;;;;;;;4.43;69.06;101713.75;5063185;28;20047;-34
2024/01/20 11:51:06;;;;;;;9.10;6.05;;;;;;;4.49;67.67;101701.00;5055573;28;20089;-36
2024/01/20 11:53:31;;;;;;;8.25;6.88;;;;;;;4.85;65.59;101691.66;5052695;28;20043;-36
2024/01/20 11:56:01;;;;;;;10.50;7.40;;;;;;;3.72;71.94;101704.13;5052369;28;20037;-34
2024/01/20 11:58:27;;;;;;;9.55;7.30;;;;;;;5.00;71.80;101701.19;5052838;28;20485;-38
2024/01/20 12:00:54;;;;;;;8.23;7.03;;;;;;;5.96;62.78;101697.25;5051886;28;20104;-39
2024/01/20 12:03:20;;;;;;;11.57;7.25;;;;;;;5.24;65.88;101693.41;5052542;28;20033;-37
2024/01/20 12:05:46;;;;;;;11.20;7.38;;;;;;;5.54;64.04;101689.63;5052957;28;20033;-35
2024/01/20 12:08:13;;;;;;;9.35;6.70;;;;;;;4.03;72.88;101693.38;5061060;28;20392;-38
2024/01/20 12:10:41;;;;;;;11.32;8.23;;;;;;;4.76;69.67;101692.22;5072573;28;20032;-35
2024/01/20 12:13:07;;;;;;;12.70;8.43;;;;;;;4.87;69.02;101692.38;5072174;28;20109;-35
2024/01/20 12:15:36;;;;;;;11.60;8.57;;;;;;;4.28;70.15;101687.41;5072056;28;20044;-36
2024/01/20 12:18:01;;;;;;;10.00;7.57;;;;;;;4.25;72.96;101689.41;5071252;28;20132;-39
2024/01/20 12:20:27;;;;;;;11.27;8.73;;;;;;;4.59;74.60;101691.56;5072304;28;20043;-34
2024/01/20 12:22:56;;;;;;;9.18;7.32;;;;;;;3.49;77.68;101698.47;5072084;28;20029;-34
2024/01/20 12:25:21;;;;;;;11.77;8.35;;;;;;;5.41;77.64;101686.97;5072135;28;20064;-38
2024/01/20 12:27:49;;;;;;;9.98;8.18;;;;;;;5.44;73.75;101678.84;5072052;28;20079;-34
2024/01/20 12:30:15;;;;;;;10.90;7.88;;;;;;;5.66;68.38;101684.31;5071571;28;20040;-34
2024/01/20 12:32:40;;;;;;;13.40;9.07;;;;;;;4.14;74.29;101674.25;5071935;28;20131;-36
2024/01/20 12:35:06;;;;;;;12.57;8.60;;;;;;;4.25;75.67;101665.66;5071868;28;20084;-40
2024/01/20 12:37:32;;;;;;;12.45;8.77;;;;;;;3.37;79.70;101672.84;5071587;28;20040;-39
2024/01/20 12:39:57;;;;;;;11.52;8.25;;;;;;;3.70;86.41;101672.56;5071276;28;20074;-34
2024/01/20 12:42:22;;;;;;;11.40;9.05;;;;;;;3.58;78.24;101675.13;5070181;28;20123;-37
2024/01/20 12:44:48;;;;;;;11.95;9.00;;;;;;;3.51;78.86;101675.50;5071413;28;20048;-39
2024/01/20 12:47:13;;;;;;;12.10;8.88;;;;;;;3.16;82.49;101668.88;5071800;28;20480;-35
2024/01/20 12:49:39;;;;;;;11.45;8.23;;;;;;;2.97;83.30;101674.38;5071729;28;20119;-35
2024/01/20 12:52:04;;;;;;;11.70;9.02;;;;;;;3.05;83.54;101677.38;5071692;28;20480;-40
2024/01/20 12:54:30;;;;;;;12.05;8.90;;;;;;;4.35;85.55;101667.59;5071899;28;20060;-35
2024/01/20 12:56:55;;;;;;;14.32;9.55;;;;;;;3.31;86.64;101665.31;5071527;28;20467;-35
2024/01/20 12:59:20;;;;;;;11.48;8.68;;;;;;;3.16;83.16;101656.56;5071793;28;20097;-36
2024/01/20 13:01:46;;;;;;;13.43;8.82;;;;;;;2.53;87.01;101653.25;5071795;28;20040;-36
2024/01/20 13:04:12;;;;;;;13.40;9.32;;;;;;;2.26;90.66;101648.59;5071576;28;20074;-37
2024/01/20 13:06:37;;;;;;;13.57;9.25;;;;;;;3.73;89.16;101651.31;5070053;28;20492;-34
2024/01/20 13:09:02;;;;;;;12.23;8.60;;;;;;;3.56;82.26;101643.59;5071583;28;20032;-39
2024/01/20 13:11:29;;;;;;;13.25;8.15;;;;;;;3.58;86.96;101635.59;5071594;28;20049;-35
2024/01/20 13:13:56;;;;;;;12.15;8.85;;;;;;;4.09;82.78;101636.75;5071408;28;20051;-41
2024/01/20 13:16:21;;;;;;;12.73;8.70;;;;;;;4.36;78.41;101627.06;5071452;28;20400;-35
2024/01/20 13:18:47;;;;;;;11.00;7.88;;;;;;;2.16;89.63;101632.50;5071023;28;20045;-38
2024/01/20 13:21:13;;;;;;;13.68;9.07;;;;;;;2.73;91.80;101637.16;5071190;28;20044;-36
2024/01/20 13:23:38;;;;;;;11.95;8.57;;;;;;;3.67;84.30;101627.13;5071587;28;20174;-39
2024/01/20 13:26:03;;;;;;;11.52;9.00;;;;;;;2.84;86.53;101632.13;5071256;28;20072;-35
2024/01/20 13:28:32;;;;;;;11.93;8.70;;;;;;;3.31;86.66;101625.81;5071005;28;20036;-38
2024/01/20 13:30:58;;;;;;;12.75;9.02;;;;;;;3.64;84.50;101624.69;5071140;28;20079;-35
2024/01/20 13:33:24;;;;;;;9.60;7.45;;;;;;;3.06;89.09;101636.09;5071101;28;20079;-38
2024/01/20 13:35:50;;;;;;;11.35;8.50;;;;;;;3.41;84.13;101636.66;5071009;28;20045;-35
2024/01/20 13:38:15;;;;;;;13.95;8.65;;;;;;;2.64;93.46;101635.91;5070935;28;20106;-36
2024/01/20 13:40:41;;;;;;;13.77;8.82;;;;;;;3.36;90.15;101631.66;5071231;28;20044;-42
2024/01/20 13:43:06;;;;;;;11.52;8.65;;;;;;;3.26;88.84;101627.91;5073027;28;20447;-38
2024/01/20 13:45:32;;;;;;;12.57;8.80;;;;;;;3.23;87.06;101628.06;5075044;28;20056;-34
2024/01/20 13:47:57;;;;;;;11.75;8.70;;;;;;;2.48;89.26;101635.13;5074604;28;20046;-38
2024/01/20 13:50:24;;;;;;;10.90;8.23;;;;;;;2.37;91.45;101627.81;5074817;28;20089;-35
2024/01/20 13:52:49;;;;;;;13.32;8.52;;;;;;;2.34;93.29;101632.41;5061039;28;20041;-37
2024/01/20 13:55:16;;;;;;;13.50;8.63;;;;;;;2.31;93.94;101636.06;5054987;28;20040;-39
2024/01/20 13:57:41;;;;;;;12.45;8.73;;;;;;;3.02;95.06;101634.63;5054582;28;20025;-38
2024/01/20 14:00:11;;;;;;;11.75;7.40;;;;;;;2.44;92.46;101631.78;5054840;28;20389;-34
2024/01/20 14:02:37;;;;;;;11.48;7.97;;;;;;;2.39;94.58;101628.56;5054411;28;20059;-35
2024/01/20 14:05:03;;;;;;;10.93;8.20;;;;;;;2.17;95.06;101620.22;5063729;28;20036;-36
2024/01/20 14:07:28;;;;;;;11.65;8.32;;;;;;;2.37;92.78;101619.94;5074253;28;20119;-37
2024/01/20 14:09:54;;;;;;;12.68;8.40;;;;;;;2.80;90.30;101612.16;5074131;28;20445;-40
2024/01/20 14:12:19;;;;;;;13.52;8.75;;;;;;;2.24;94.51;101607.56;5074516;28;20177;-35
2024/01/20 14:14:45;;;;;;;12.88;8.23;;;;;;;2.06;97.53;101606.81;5074451;28;20067;-36
2024/01/20 14:17:10;;;;;;;10.93;7.47;;;;;;;2.28;96.26;101609.94;5074041;28;20090;-36
2024/01/20 14:19:37;;;;;;;13.15;8.15;;;;;;;2.27;94.88;101607.38;5073743;28;20052;-37
2024/01/20 14:22:03;;;;;;;11.10;7.78;;;;;;;2.38;93.90;101607.63;5074342;28;20040;-37
2024/01/20 14:24:29;;;;;;;15.50;8.52;;;;;;;2.27;94.34;101607.38;5074422;28;20047;-35
2024/01/20 14:26:54;;;;;;;11.27;7.60;;;;;;;2.48;93.39;101602.66;5074162;28;20043;-35
2024/01/20 14:29:20;;;;;;;9.63;7.43;;;;;;;2.18;95.69;101611.38;5070704;28;20036;-39
2024/01/20 14:31:52;;;;;;;14.10;8.85;;;;;;;2.37;97.46;101608.56;5063081;28;20044;-32
2024/01/20 14:34:19;;;;;;;16.73;9.10;;;;;;;2.45;94.45;101601.91;5062717;28;20370;-40
2024/01/20 14:36:47;;;;;;;14.87;8.23;;;;;;;2.49;92.70;101604.41;5064297;28;20393;-35
2024/01/20 14:39:13;;;;;;;12.57;8.50;;;;;;;2.50;93.37;101600.81;5061980;28;20279;-40
2024/01/20 14:41:39;;;;;;;10.82;7.97;;;;;;;2.00;96.51;101600.09;5064534;28;20111;-33
2024/01/20 14:44:05;;;;;;;14.10;8.75;;;;;;;1.70;100.00;101599.19;5061957;28;20105;-35
2024/01/20 14:46:32;;;;;;;13.05;8.00;;;;;;;1.92;98.50;101598.84;5046805;28;20037;-42
2024/01/20 14:48:59;;;;;;;12.70;8.60;;;;;;;1.79;98.55;101601.31;5062582;28;20037;-34
2024/01/20 14:51:25;;;;;;;11.60;7.60;;;;;;;1.49;100.00;101603.78;5064125;28;20052;-41
2024/01/20 14:53:50;;;;;;;12.18;8.43;;;;;;;1.59;100.00;101597.13;5063151;28;20029;-39
2024/01/20 14:56:16;;;;;;;13.55;8.25;;;;;;;1.73;100.00;101599.84;5060940;28;20025;-41
2024/01/20 14:58:41;;;;;;;13.05;8.32;;;;;;;1.82;100.00;101599.34;5063823;28;20732;-40
2024/01/20 15:01:07;;;;;;;13.48;8.52;;;;;;;1.76;100.00;101607.59;5062026;28;20032;-41
2024/01/20 15:03:32;;;;;;;10.27;7.38;;;;;;;1.49;100.00;101607.28;5063206;28;20040;-38
2024/01/20 15:05:57;;;;;;;10.80;7.25;;;;;;;1.48;100.00;101604.72;5063497;28;20033;-42
2024/01/20 15:08:23;;;;;;;11.75;7.13;;;;;;;1.50;100.00;101614.25;5061469;28;20040;-38
2024/01/20 15:10:48;;;;;;;12.55;8.00;;;;;;;1.42;100.00;101613.78;5063556;28;20452;-40
2024/01/20 15:13:15;;;;;;;11.77;8.10;;;;;;;1.28;100.00;101614.50;5062702;28;20041;-41
2024/01/20 15:15:40;;;;;;;10.45;7.38;;;;;;;1.28;100.00;101618.91;5061699;28;20388;-37
2024/01/20 15:18:06;;;;;;;11.45;8.45;;;;;;;1.31;100.00;101624.88;5063567;28;20033;-40
2024/01/20 15:20:33;;;;;;;13.32;8.07;;;;;;;1.30;100.00;101617.94;5062401;28;20028;-42
2024/01/20 15:22:59;;;;;;;13.20;7.25;;;;;;;1.12;100.00;101639.88;5062041;28;20056;-39
2024/01/20 15:25:24;;;;;;;11.02;7.80;;;;;;;1.14;100.00;101639.78;5063517;28;20055;-41
2024/01/20 15:27:49;;;;;;;11.35;7.88;;;;;;;1.00;100.00;101641.34;5061665;28;20033;-41
2024/01/20 15:30:15;;;;;;;12.50;8.55;;;;;;;0.87;100.00;101642.03;5062235;28;20024;-38
2024/01/20 15:32:40;;;;;;;12.40;8.07;;;;;;;0.73;100.00;101642.75;5063323;28;20557;-40
2024/01/20 15:35:07;;;;;;;13.98;9.27;;;;;;;0.66;100.00;101641.34;5061390;28;20111;-42
2024/01/20 15:37:33;;;;;;;12.82;9.07;;;;;;;0.44;100.00;101641.53;5062332;28;20032;-41
2024/01/20 15:39:58;;;;;;;13.45;8.05;;;;;;;0.55;100.00;101644.47;5062738;28;20143;-41
2024/01/20 15:42:24;;;;;;;13.48;9.13;;;;;;;0.34;100.00;101646.38;5061220;28;20046;-39
2024/01/20 15:44:49;;;;;;;11.50;7.85;;;;;;;0.41;100.00;101653.03;5059349;28;20028;-42
2024/01/20 15:47:15;;;;;;;12.20;8.55;;;;;;;0.06;100.00;101638.97;5061992;28;20041;-43
2024/01/20 15:49:40;;;;;;;13.85;8.45;;;;;;;0.11;100.00;101644.00;5063168;28;20659;-38
2024/01/20 15:52:05;;;;;;;13.70;8.88;;;;;;;0.02;100.00;101650.53;5061108;28;20033;-42
2024/01/20 15:54:31;;;;;;;15.15;9.50;;;;;;;0.07;100.00;101640.69;5062765;28;20488;-42
2024/01/20 15:56:56;;;;;;;12.82;8.55;;;;;;;-0.12;100.00;101645.06;5062339;28;20041;-43
2024/01/20 15:59:24;;;;;;;13.30;8.63;;;;;;;-0.09;100.00;101645.78;5043311;28;20202;-43
2024/01/20 16:01:50;;;;;;;14.32;9.20;;;;;;;-0.19;100.00;101648.91;5061545;28;20416;-41
2024/01/20 16:04:15;;;;;;;14.13;9.30;;;;;;;-0.11;100.00;101639.75;5061856;28;20051;-40
2024/01/20 16:06:42;;;;;;;15.13;9.63;;;;;;;-0.40;100.00;101643.69;5061869;28;20036;-43
2024/01/20 16:09:08;;;;;;;15.67;9.33;;;;;;;-0.46;100.00;101638.72;5060781;28;20025;-43
2024/01/20 16:11:34;;;;;;;15.05;9.32;;;;;;;-0.65;100.00;101643.97;5061352;28;20068;-43
2024/01/20 16:13:59;;;;;;;12.88;8.65;;;;;;;-0.82;100.00;101643.84;5062621;28;20056;-39
2024/01/20 16:16:25;;;;;;;14.57;9.68;;;;;;;-0.72;100.00;101639.03;5058441;28;20540;-44
2024/01/20 16:18:51;;;;;;;13.10;9.05;;;;;;;-0.90;100.00;101632.84;5061005;28;20029;-43
2024/01/20 16:21:23;;;;;;;14.43;9.15;;;;;;;-0.93;100.00;101638.22;5060955;28;20458;-43
2024/01/20 16:23:52;;;;;;;17.80;11.15;;;;;;;-0.92;100.00;101637.28;5057021;28;20044;-43
2024/01/20 16:26:20;;;;;;;18.90;10.45;;;;;;;-0.97;100.00;101642.75;5061062;28;20020;-43
2024/01/20 16:28:47;;;;;;;12.93;9.55;;;;;;;-1.11;100.00;101642.44;5062102;28;20090;-39
2024/01/20 16:31:14;;;;;;;15.68;10.02;;;;;;;-1.10;100.00;101638.94;5061312;28;20039;-42
2024/01/20 16:33:39;;;;;;;17.27;10.97;;;;;;;-0.96;100.00;101633.97;5060892;28;20033;-44
2024/01/20 16:36:05;;;;;;;16.88;9.88;;;;;;;-0.94;100.00;101639.97;5064357;28;20113;-44
2024/01/20 16:38:32;;;;;;;16.15;10.50;;;;;;;-1.27;100.00;101628.31;5071401;28;20036;-42
2024/01/20 16:40:58;;;;;;;15.38;10.52;;;;;;;-1.16;100.00;101631.34;5071647;28;20028;-44